createdAt,value
2018-01-02T00:02:11.170Z,1.10
2018-01-02T00:04:40.775Z,1.40
2018-01-02T00:07:10.894Z,0.90
2018-01-02T00:09:38.525Z,1.10
2018-01-02T00:12:11.668Z,1.20
2018-01-02T00:14:41.131Z,1.60
2018-01-02T00:17:10.535Z,0.90
2018-01-02T00:19:39.736Z,1.15
2018-01-02T00:22:08.260Z,1.20
2018-01-02T00:24:36.245Z,1.27
2018-01-02T00:27:03.952Z,0.93
2018-01-02T00:29:31.543Z,1.12
2018-01-02T00:31:59.071Z,1.17
2018-01-02T00:34:26.728Z,1.20
2018-01-02T00:36:54.334Z,1.00
2018-01-02T00:39:21.882Z,1.40
2018-01-02T00:41:49.623Z,1.23
2018-01-02T00:44:17.534Z,0.95
2018-01-02T00:46:46.531Z,1.10
2018-01-02T00:49:14.266Z,0.90
2018-01-02T00:51:45.721Z,1.02
2018-01-02T00:54:13.914Z,0.90
2018-01-02T00:56:42.529Z,0.90
2018-01-02T00:59:10.224Z,1.00
2018-01-02T01:01:38.419Z,1.10
2018-01-02T01:04:06.634Z,0.80
2018-01-02T01:06:34.387Z,1.00
2018-01-02T01:09:02.187Z,0.80
2018-01-02T01:11:30.236Z,0.80
2018-01-02T01:13:58.805Z,0.73
2018-01-02T01:16:26.581Z,0.80
2018-01-02T01:18:55.317Z,0.90
2018-01-02T01:21:23.444Z,1.12
2018-01-02T01:23:51.065Z,0.82
2018-01-02T01:26:19.847Z,1.23
2018-01-02T01:28:47.567Z,0.85
2018-01-02T01:31:18.310Z,0.80
2018-01-02T01:33:47.198Z,1.00
2018-01-02T01:36:15.937Z,1.00
2018-01-02T01:38:45.354Z,0.88
2018-01-02T01:41:14.434Z,1.25
2018-01-02T01:43:42.245Z,0.90
2018-01-02T01:46:10.192Z,1.12
2018-01-02T01:48:50.060Z,1.00
2018-01-02T01:51:20.751Z,1.00
2018-01-02T01:53:48.595Z,1.20
2018-01-02T01:56:16.357Z,1.02
2018-01-02T01:58:45.332Z,1.10
2018-01-02T02:01:15.359Z,1.40
2018-01-02T02:03:44.357Z,1.45
2018-01-02T02:06:15.050Z,1.20
2018-01-02T02:08:45.980Z,1.00
2018-01-02T02:11:14.613Z,0.93
2018-01-02T02:13:42.690Z,1.20
2018-01-02T02:16:10.952Z,1.35
2018-01-02T02:21:24.057Z,0.93
2018-01-02T02:24:01.440Z,1.52
2018-01-02T02:26:39.574Z,1.03
2018-01-02T02:29:20.907Z,1.45
2018-01-02T02:31:50.306Z,1.17
2018-01-02T02:34:22.506Z,2.27
2018-01-02T02:36:50.461Z,1.20
2018-01-02T02:39:18.120Z,1.35
2018-01-02T02:42:07.477Z,1.15
2018-01-02T02:44:49.930Z,0.97
2018-01-02T03:26:40.626Z,0.90
2018-01-02T03:29:08.301Z,1.15
2018-01-02T03:31:35.990Z,0.90
2018-01-02T03:34:03.672Z,1.10
2018-01-02T03:36:31.611Z,0.90
2018-01-02T03:38:59.350Z,0.90
2018-01-02T03:41:29.086Z,0.90
2018-01-02T03:43:56.769Z,1.25
2018-01-02T03:46:24.344Z,1.10
2018-01-02T03:48:52.137Z,1.00
2018-01-02T03:51:20.846Z,0.80
2018-01-02T03:53:49.543Z,0.85
2018-01-02T03:56:19.547Z,1.00
2018-01-02T03:58:48.707Z,0.85
2018-01-02T04:01:17.142Z,0.82
2018-01-02T04:03:44.803Z,1.10
2018-01-02T04:06:12.776Z,0.80
2018-01-02T04:08:40.593Z,0.90
2018-01-02T04:11:09.553Z,1.00
2018-01-02T04:13:37.581Z,0.85
2018-01-02T04:16:05.291Z,1.00
2018-01-02T04:18:32.832Z,0.90
2018-01-02T04:21:00.408Z,1.30
2018-01-02T04:23:27.905Z,0.80
2018-01-02T04:25:55.680Z,1.37
2018-01-02T04:28:23.176Z,0.93
2018-01-02T04:30:51.867Z,0.85
2018-01-02T04:33:20.992Z,1.10
2018-01-02T04:35:48.668Z,0.93
2018-01-02T04:38:16.412Z,0.98
2018-01-02T04:40:43.998Z,0.80
2018-01-02T04:43:11.572Z,0.90
2018-01-02T04:45:39.139Z,0.90
2018-01-02T04:48:07.046Z,1.00
2018-01-02T04:50:34.633Z,1.00
2018-01-02T04:53:02.288Z,1.00
2018-01-02T04:55:29.982Z,1.00
2018-01-02T04:57:58.845Z,0.90
2018-01-02T05:00:26.426Z,1.10
2018-01-02T05:02:54.238Z,0.90
2018-01-02T05:05:24.007Z,0.80
2018-01-02T05:07:54.024Z,0.70
2018-01-02T05:10:22.847Z,1.00
2018-01-02T05:12:50.343Z,1.15
2018-01-02T05:15:17.892Z,1.00
2018-01-02T05:17:45.524Z,1.30
2018-01-02T05:20:13.233Z,1.00
2018-01-02T05:22:40.816Z,1.25
2018-01-02T05:25:08.504Z,1.08
2018-01-02T05:27:36.239Z,1.10
2018-01-02T05:30:03.912Z,1.40
2018-01-02T05:32:32.120Z,1.23
2018-01-02T05:35:00.062Z,1.10
2018-01-02T05:37:27.559Z,1.40
2018-01-02T05:39:56.052Z,1.48
2018-01-02T05:42:28.022Z,1.60
2018-01-02T05:44:55.692Z,1.48
2018-01-02T05:47:24.800Z,1.50
2018-01-02T05:49:54.156Z,1.33
2018-01-02T05:52:21.840Z,1.48
2018-01-02T05:54:49.399Z,1.80
2018-01-02T05:57:17.007Z,1.45
2018-01-02T05:59:44.612Z,1.42
2018-01-02T06:02:12.279Z,1.50
2018-01-02T06:04:40.136Z,1.60
2018-01-02T06:07:07.756Z,1.50
2018-01-02T06:09:35.697Z,1.45
2018-01-02T06:12:03.210Z,1.20
2018-01-02T06:14:30.811Z,1.70
2018-01-02T06:16:58.391Z,1.25
2018-01-02T06:19:26.645Z,1.25
2018-01-02T06:21:55.524Z,1.05
2018-01-02T06:24:23.194Z,1.20
2018-01-02T06:26:51.888Z,1.30
2018-01-02T06:29:19.777Z,1.15
2018-01-02T06:31:47.391Z,1.40
2018-01-02T06:34:15.087Z,1.80
2018-01-02T06:36:42.678Z,1.40
2018-01-02T06:39:10.215Z,1.25
2018-01-02T06:41:37.754Z,1.37
2018-01-02T06:44:05.296Z,1.37
2018-01-02T06:46:32.905Z,1.77
2018-01-02T06:49:00.383Z,1.50
2018-01-02T06:51:28.083Z,1.80
2018-01-02T06:53:56.818Z,2.10
2018-01-02T06:56:24.405Z,1.90
2018-01-02T06:58:52.211Z,1.90
2018-01-02T07:01:19.832Z,1.67
2018-01-02T07:03:47.945Z,1.87
2018-01-02T07:06:15.397Z,1.90
2018-01-02T07:08:42.954Z,2.00
2018-01-02T07:11:11.002Z,1.58
2018-01-02T07:13:38.498Z,2.30
2018-01-02T07:16:06.001Z,2.30
2018-01-02T07:18:33.475Z,2.35
2018-01-02T07:21:00.957Z,2.60
2018-01-02T07:23:28.687Z,2.58
2018-01-02T07:25:56.565Z,1.95
2018-01-02T07:28:24.083Z,2.10
2018-01-02T07:30:51.744Z,2.28
2018-01-02T07:33:19.351Z,2.30
2018-01-02T07:35:46.856Z,2.50
2018-01-02T07:38:14.396Z,2.15
2018-01-02T07:40:42.028Z,2.22
2018-01-02T07:43:09.487Z,1.90
2018-01-02T07:45:36.984Z,1.40
2018-01-02T07:48:04.595Z,1.73
2018-01-02T07:50:32.075Z,1.62
2018-01-02T07:52:59.566Z,2.10
2018-01-02T07:55:27.481Z,1.73
2018-01-02T07:57:59.177Z,1.65
2018-01-02T08:00:26.638Z,1.50
2018-01-02T08:02:54.124Z,1.35
2018-01-02T08:05:21.612Z,1.30
2018-01-02T08:07:49.332Z,1.50
2018-01-02T08:10:17.026Z,1.40
2018-01-02T08:12:44.744Z,1.62
2018-01-02T08:15:12.678Z,1.30
2018-01-02T08:17:40.353Z,1.27
2018-01-02T08:20:09.368Z,1.20
2018-01-02T08:22:42.635Z,1.40
2018-01-02T08:25:10.668Z,1.40
2018-01-02T08:27:40.519Z,1.25
2018-01-02T08:30:08.769Z,1.00
2018-01-02T08:35:33.672Z,1.80
2018-01-02T08:38:20.960Z,1.45
2018-01-02T08:46:20.349Z,1.90
2018-01-02T08:48:51.327Z,1.80
2018-01-02T08:54:35.342Z,1.15
2018-01-02T08:57:03.034Z,2.10
2018-01-02T08:59:32.157Z,1.37
2018-01-02T09:02:01.437Z,1.70
2018-01-02T09:04:30.361Z,1.70
2018-01-02T09:06:59.358Z,1.60
2018-01-02T09:09:30.908Z,1.77
2018-01-02T09:12:01.784Z,1.83
2018-01-02T09:14:35.335Z,1.95
2018-01-02T09:17:05.546Z,1.70
2018-01-02T09:19:33.241Z,2.10
2018-01-02T09:22:01.756Z,2.12
2018-01-02T09:24:34.301Z,1.80
2018-01-02T09:27:02.392Z,1.60
2018-01-02T09:29:30.232Z,2.30
2018-01-02T09:31:58.148Z,1.77
2018-01-02T09:34:29.390Z,1.23
2018-01-02T09:36:58.113Z,1.95
2018-01-02T09:39:26.278Z,2.00
2018-01-02T09:41:55.384Z,2.95
2018-01-02T09:44:24.920Z,2.22
2018-01-02T09:46:53.786Z,4.12
2018-01-02T09:49:25.389Z,1.95
2018-01-02T09:51:52.852Z,1.73
2018-01-02T09:54:20.334Z,2.33
2018-01-02T09:56:47.811Z,1.65
2018-01-02T09:59:15.405Z,2.08
2018-01-02T10:01:42.971Z,1.70
2018-01-02T10:04:10.652Z,2.10
2018-01-02T10:06:38.227Z,2.20
2018-01-02T10:09:07.579Z,2.00
2018-01-02T10:11:36.219Z,2.10
2018-01-02T10:14:04.170Z,1.92
2018-01-02T10:16:31.672Z,2.20
2018-01-02T10:18:59.213Z,1.65
2018-01-02T10:21:26.692Z,1.80
2018-01-02T10:23:54.502Z,1.90
2018-01-02T10:26:22.079Z,2.30
2018-01-02T10:28:49.617Z,2.20
2018-01-02T10:31:17.138Z,2.15
2018-01-02T10:33:44.838Z,2.17
2018-01-02T10:36:12.418Z,2.30
2018-01-02T10:38:39.958Z,2.15
2018-01-02T10:41:07.532Z,1.40
2018-01-02T10:43:36.033Z,1.70
2018-01-02T10:46:05.249Z,1.35
2018-01-02T10:48:32.868Z,1.90
2018-01-02T10:51:00.380Z,1.45
2018-01-02T10:53:27.920Z,2.15
2018-01-02T10:55:55.439Z,1.50
2018-01-02T10:58:24.088Z,1.50
2018-01-02T11:00:58.000Z,1.77
2018-01-02T11:03:25.511Z,1.97
2018-01-02T11:05:53.248Z,1.70
2018-01-02T11:08:21.544Z,2.00
2018-01-02T11:10:49.483Z,2.00
2018-01-02T11:13:17.065Z,2.60
2018-01-02T11:15:44.539Z,1.40
2018-01-02T11:18:12.059Z,1.80
2018-01-02T11:20:39.614Z,1.60
2018-01-02T11:23:07.991Z,2.00
2018-01-02T11:25:36.639Z,2.03
2018-01-02T11:28:04.391Z,1.80
2018-01-02T11:30:31.942Z,2.20
2018-01-02T11:32:59.518Z,2.17
2018-01-02T11:35:27.041Z,2.33
2018-01-02T11:37:54.554Z,1.90
2018-01-02T11:40:22.182Z,1.83
2018-01-02T11:42:49.849Z,1.40
2018-01-02T11:45:17.550Z,1.37
2018-01-02T11:47:45.073Z,1.70
2018-01-02T11:50:12.730Z,1.67
2018-01-02T11:52:40.280Z,2.07
2018-01-02T11:55:08.699Z,1.90
2018-01-02T11:57:36.218Z,2.00
2018-01-02T12:00:04.038Z,1.50
2018-01-02T12:02:32.055Z,1.27
2018-01-02T12:04:59.629Z,1.40
2018-01-02T12:07:30.385Z,2.30
2018-01-02T12:09:57.923Z,2.53
2018-01-02T12:12:29.635Z,2.40
2018-01-02T12:14:57.356Z,2.50
2018-01-02T12:17:25.121Z,2.60
2018-01-02T12:19:52.621Z,1.90
2018-01-02T12:22:20.199Z,1.80
2018-01-02T12:24:47.771Z,2.00
2018-01-02T12:27:15.645Z,2.20
2018-01-02T12:29:43.122Z,2.40
2018-01-02T12:32:11.201Z,1.70
2018-01-02T12:34:39.881Z,2.37
2018-01-02T12:37:07.465Z,1.90
2018-01-02T12:39:35.007Z,1.90
2018-01-02T12:42:02.863Z,3.23
2018-01-02T12:44:30.448Z,2.27
2018-01-02T12:46:58.046Z,2.20
2018-01-02T12:49:25.752Z,2.93
2018-01-02T12:51:53.343Z,4.20
2018-01-02T12:54:21.000Z,3.27
2018-01-02T12:56:48.584Z,3.70
2018-01-02T12:59:16.053Z,4.10
2018-01-02T13:01:44.875Z,5.20
2018-01-02T13:04:12.410Z,2.00
2018-01-02T13:06:40.684Z,2.13
2018-01-02T13:09:08.234Z,3.07
2018-01-02T13:11:35.958Z,2.07
2018-01-02T13:14:03.588Z,2.57
2018-01-02T13:16:31.077Z,1.93
2018-01-02T13:18:58.816Z,2.30
2018-01-02T13:21:26.842Z,1.70
2018-01-02T13:23:54.516Z,2.20
2018-01-02T13:26:22.145Z,2.73
2018-01-02T13:28:49.765Z,1.90
2018-01-02T13:31:17.343Z,2.77
2018-01-02T13:33:44.893Z,2.57
2018-01-02T13:36:13.182Z,2.73
2018-01-02T13:38:41.303Z,2.70
2018-01-02T13:41:08.812Z,2.23
2018-01-02T13:43:36.850Z,2.30
2018-01-02T13:46:04.412Z,2.20
2018-01-02T13:48:33.224Z,2.10
2018-01-02T13:51:00.765Z,2.07
2018-01-02T13:53:28.288Z,2.80
2018-01-02T13:55:55.819Z,2.50
2018-01-02T13:58:25.078Z,5.13
2018-01-02T14:00:53.565Z,4.00
2018-01-02T14:03:21.532Z,2.63
2018-01-02T14:05:49.078Z,2.13
2018-01-02T14:08:18.186Z,2.50
2018-01-02T14:10:46.070Z,1.70
2018-01-02T14:13:14.482Z,2.43
2018-01-02T14:15:42.685Z,2.20
2018-01-02T14:18:12.662Z,4.20
2018-01-02T14:20:40.701Z,3.43
2018-01-02T14:23:08.238Z,2.47
2018-01-02T14:25:35.854Z,2.70
2018-01-02T14:28:03.379Z,2.30
2018-01-02T14:30:30.913Z,2.40
2018-01-02T14:32:58.463Z,2.20
2018-01-02T14:35:25.966Z,2.83
2018-01-02T14:37:53.446Z,2.90
2018-01-02T14:40:21.018Z,2.50
2018-01-02T14:42:48.479Z,2.13
2018-01-02T14:45:16.291Z,2.20
2018-01-02T14:47:44.842Z,3.47
2018-01-02T14:50:12.383Z,2.20
2018-01-02T15:27:41.937Z,2.85
2018-01-02T15:30:09.449Z,2.83
2018-01-02T15:32:36.973Z,2.67
2018-01-02T15:35:05.080Z,3.28
2018-01-02T15:37:32.668Z,3.30
2018-01-02T15:40:00.198Z,2.55
2018-01-02T15:42:27.684Z,3.50
2018-01-02T15:44:55.373Z,3.00
2018-01-02T15:47:22.918Z,5.20
2018-01-02T15:49:53.520Z,3.43
2018-01-02T15:52:21.154Z,3.60
2018-01-02T15:54:48.963Z,3.23
2018-01-02T15:57:17.483Z,4.60
2018-01-02T15:59:45.260Z,4.20
2018-01-02T16:02:13.462Z,3.57
2018-01-02T16:04:40.911Z,4.30
2018-01-02T16:07:09.261Z,3.47
2018-01-02T16:09:36.826Z,3.10
2018-01-02T16:12:04.423Z,3.67
2018-01-02T16:14:33.804Z,3.93
2018-01-02T16:17:01.453Z,2.97
2018-01-02T16:19:29.022Z,3.40
2018-01-02T16:21:57.647Z,3.70
2018-01-02T16:24:25.255Z,3.63
2018-01-02T16:26:53.131Z,2.90
2018-01-02T16:29:20.885Z,3.83
2018-01-02T16:31:48.833Z,2.80
2018-01-02T16:34:18.131Z,2.77
2018-01-02T16:36:48.252Z,3.00
2018-01-02T16:39:15.810Z,3.17
2018-01-02T16:41:43.688Z,3.67
2018-01-02T16:44:11.246Z,5.00
2018-01-02T16:46:38.928Z,5.07
2018-01-02T16:49:06.454Z,4.80
2018-01-02T16:51:34.018Z,4.10
2018-01-02T16:54:01.698Z,4.50
2018-01-02T16:56:29.407Z,4.53
2018-01-02T16:58:56.976Z,4.70
2018-01-02T17:01:24.981Z,4.27
2018-01-02T17:03:52.760Z,5.20
2018-01-02T17:06:20.816Z,5.77
2018-01-02T17:08:48.292Z,5.70
2018-01-02T17:11:17.651Z,5.50
2018-01-02T17:13:45.200Z,4.70
2018-01-02T17:16:12.787Z,5.37
2018-01-02T17:18:40.305Z,4.70
2018-01-02T17:21:07.877Z,4.53
2018-01-02T17:23:36.077Z,4.70
2018-01-02T17:26:14.109Z,4.93
2018-01-02T17:28:43.069Z,5.53
2018-01-02T17:31:14.146Z,5.57
2018-01-02T17:33:43.573Z,6.70
2018-01-02T17:36:11.674Z,6.20
2018-01-02T17:38:39.971Z,5.47
2018-01-02T17:41:08.032Z,5.43
2018-01-02T17:43:36.113Z,5.97
2018-01-02T17:46:06.074Z,6.13
2018-01-02T17:48:34.295Z,5.87
2018-01-02T17:51:03.818Z,6.37
2018-01-02T17:53:31.711Z,7.83
2018-01-02T17:55:59.362Z,8.10
2018-01-02T17:58:27.201Z,5.77
2018-01-02T18:00:54.836Z,4.90
2018-01-02T18:03:23.675Z,4.73
2018-01-02T18:05:52.605Z,6.17
2018-01-02T18:08:20.209Z,4.60
2018-01-02T18:10:47.761Z,4.90
2018-01-02T18:13:15.382Z,5.67
2018-01-02T18:15:42.976Z,5.90
2018-01-02T18:18:10.523Z,5.90
2018-01-02T18:20:38.194Z,5.67
2018-01-02T18:23:06.081Z,6.10
2018-01-02T18:25:33.646Z,5.67
2018-01-02T18:28:01.786Z,5.10
2018-01-02T18:30:30.722Z,5.63
2018-01-02T18:32:58.513Z,5.10
2018-01-02T18:35:26.052Z,6.20
2018-01-02T18:37:54.428Z,5.15
2018-01-02T18:40:23.093Z,5.80
2018-01-02T18:42:51.027Z,5.60
2018-01-02T18:45:18.653Z,6.50
2018-01-02T18:47:46.604Z,5.50
2018-01-02T18:50:14.432Z,6.10
2018-01-02T18:52:43.218Z,5.33
2018-01-02T18:55:10.908Z,5.77
2018-01-02T18:57:39.099Z,5.43
2018-01-02T19:00:07.266Z,5.93
2018-01-02T19:02:35.246Z,6.30
2018-01-02T19:05:03.849Z,6.40
2018-01-02T19:07:32.014Z,5.30
2018-01-02T19:09:59.651Z,5.40
2018-01-02T19:12:28.254Z,5.62
2018-01-02T19:14:57.709Z,5.07
2018-01-02T19:17:26.330Z,3.97
2018-01-02T19:19:54.488Z,3.70
2018-01-02T19:22:23.089Z,3.63
2018-01-02T19:24:50.875Z,4.83
2018-01-02T19:27:19.176Z,4.80
2018-01-02T19:29:46.949Z,5.20
2018-01-02T19:32:16.425Z,5.25
2018-01-02T19:34:44.406Z,4.30
2018-01-02T19:37:12.416Z,3.77
2018-01-02T19:39:40.466Z,4.37
2018-01-02T19:42:08.776Z,4.07
2018-01-02T19:44:36.574Z,4.63
2018-01-02T19:47:04.453Z,3.73
2018-01-02T19:49:32.109Z,4.12
2018-01-02T19:51:59.745Z,4.45
2018-01-02T19:54:28.365Z,5.00
2018-01-02T19:56:57.241Z,3.20
2018-01-02T19:59:26.704Z,3.35
2018-01-02T20:01:54.497Z,3.53
2018-01-02T20:04:22.210Z,3.10
2018-01-02T20:06:50.125Z,2.53
2018-01-02T20:09:19.795Z,4.22
2018-01-02T20:11:48.130Z,4.13
2018-01-02T20:14:16.167Z,3.20
2018-01-02T20:16:44.274Z,3.42
2018-01-02T20:19:14.071Z,3.03
2018-01-02T20:21:42.067Z,2.67
2018-01-02T20:24:10.493Z,3.05
2018-01-02T20:26:39.042Z,3.15
2018-01-02T20:29:06.848Z,2.55
2018-01-02T20:31:34.557Z,3.65
2018-01-02T20:34:02.257Z,3.37
2018-01-02T20:36:43.949Z,3.70
2018-01-02T20:41:44.663Z,3.50
2018-01-02T20:44:13.342Z,2.90
2018-01-02T20:46:40.924Z,3.30
2018-01-02T20:49:09.287Z,3.00
2018-01-02T20:51:37.458Z,3.25
2018-01-02T20:54:06.860Z,2.85
2018-01-02T20:56:34.597Z,2.37
2018-01-02T20:59:02.391Z,2.67
2018-01-02T21:01:31.682Z,2.40
2018-01-02T21:04:03.459Z,3.43
2018-01-02T21:06:31.098Z,3.40
2018-01-02T21:09:00.974Z,2.60
2018-01-02T21:11:29.490Z,2.62
2018-01-02T21:13:58.657Z,2.67
2018-01-02T21:16:27.950Z,3.05
2018-01-02T21:18:55.988Z,2.53
2018-01-02T21:21:24.006Z,2.22
2018-01-02T21:23:51.857Z,3.40
2018-01-02T21:26:20.574Z,2.50
2018-01-02T21:28:49.915Z,3.03
2018-01-02T21:31:18.366Z,3.92
2018-01-02T21:33:47.514Z,2.35
2018-01-02T21:36:16.013Z,2.83
2018-01-02T21:38:45.544Z,3.12
2018-01-02T21:41:13.810Z,3.37
2018-01-02T21:43:41.456Z,3.28
2018-01-02T21:46:11.614Z,2.80
2018-01-02T21:48:39.659Z,2.87
2018-01-02T21:51:07.390Z,3.00
2018-01-02T21:53:36.720Z,3.27
2018-01-02T21:56:04.452Z,2.70
2018-01-02T21:58:33.154Z,2.67
2018-01-02T22:01:01.554Z,2.70
2018-01-02T22:03:29.297Z,2.00
2018-01-02T22:05:57.813Z,2.63
2018-01-02T22:08:26.622Z,2.20
2018-01-02T22:10:55.298Z,2.83
2018-01-02T22:13:23.216Z,2.90
2018-01-02T22:15:51.835Z,3.00
2018-01-02T22:18:23.563Z,2.60
2018-01-02T22:20:54.907Z,2.50
2018-01-02T22:23:23.086Z,2.27
2018-01-02T22:25:50.671Z,1.87
2018-01-02T22:28:18.260Z,1.73
2018-01-02T22:30:45.897Z,1.53
2018-01-02T22:33:13.496Z,1.67
2018-01-02T22:35:42.849Z,1.53
2018-01-02T22:38:11.770Z,1.60
2018-01-02T22:40:39.594Z,1.90
2018-01-02T22:43:09.925Z,1.80
2018-01-02T22:45:37.562Z,1.80
2018-01-02T22:48:05.863Z,1.63
2018-01-02T22:50:37.794Z,1.40
2018-01-02T22:53:05.932Z,1.33
2018-01-02T22:55:34.184Z,1.40
2018-01-02T22:58:01.705Z,1.30
2018-01-02T23:00:29.335Z,1.40
2018-01-02T23:02:56.975Z,1.43
2018-01-02T23:05:25.368Z,1.77
2018-01-02T23:07:53.831Z,1.20
2018-01-02T23:10:21.491Z,0.95
2018-01-02T23:12:49.653Z,1.20
2018-01-02T23:15:18.177Z,1.37
2018-01-02T23:17:45.805Z,1.30
2018-01-02T23:20:15.265Z,1.50
2018-01-02T23:22:43.067Z,1.33
2018-01-02T23:25:10.752Z,1.43
2018-01-02T23:27:38.291Z,1.30
2018-01-02T23:30:06.310Z,1.30
2018-01-02T23:32:35.056Z,1.50
2018-01-02T23:35:02.732Z,1.77
2018-01-02T23:37:30.462Z,1.60
2018-01-02T23:39:58.097Z,1.37
2018-01-02T23:42:26.541Z,1.73
2018-01-02T23:44:54.479Z,2.70
2018-01-02T23:47:21.988Z,1.35
2018-01-02T23:49:50.405Z,1.23
2018-01-02T23:52:19.602Z,1.27
2018-01-02T23:54:48.939Z,1.15
2018-01-02T23:57:16.600Z,1.60
2018-01-02T23:59:44.221Z,1.50
